Time;durP1;ratioP1;P1;durP2;ratioP2;P2;SDS_P1;SDS_P2;PMS_P1;PMS_P2;Temp;Humidity;BMP_temperature;BMP_pressure;BME280_temperature;BME280_humidity;BME280_pressure;Samples;Min_cycle;Max_cycle;Signal;HPM_P1;HPM_P2
2021/10/05 00:29:11;;;;;;;12.33;7.03;;;;;;;14.35;87.86;100701.52;21098148;80;99636;-86
2021/10/05 00:59:12;;;;;;;12.95;7.12;;;;;;;14.05;87.17;100675.34;21131565;81;99562;-85
2021/10/05 01:29:18;;;;;;;;;;;;;;;13.83;88.05;100651.61;21127803;81;99632;-85
2021/10/05 01:59:19;;;;;;;14.00;8.33;;;;;;;13.52;88.58;100632.39;21145885;81;92607;-84
2021/10/05 02:29:21;;;;;;;15.00;8.78;;;;;;;13.27;87.65;100590.08;21242855;80;99656;-84
2021/10/05 02:59:23;;;;;;;21.53;12.97;;;;;;;13.07;88.97;100583.88;21203551;81;99543;-84
2021/10/05 03:29:24;;;;;;;29.86;18.66;;;;;;;13.01;90.21;100538.47;21132627;80;100077;-84
2021/10/05 03:59:24;;;;;;;;;;;;;;;12.87;92.79;100532.89;21115116;81;1761640;-84
2021/10/05 04:29:25;;;;;;;44.75;30.57;;;;;;;12.96;92.73;100514.79;21133099;81;85971;-85
2021/10/05 04:59:26;;;;;;;56.75;35.60;;;;;;;12.77;94.84;100488.88;21215721;81;100052;-86
2021/10/05 05:29:27;;;;;;;50.43;32.23;;;;;;;12.78;96.52;100420.59;21209081;81;100143;-85
2021/10/05 05:59:28;;;;;;;;;;;;;;;12.85;96.40;100372.27;21050939;82;99747;-81
2021/10/05 06:29:28;;;;;;;53.52;31.85;;;;;;;13.39;96.36;100376.84;20627684;83;103561;-81
2021/10/05 06:59:29;;;;;;;52.67;32.03;;;;;;;13.73;94.45;100375.81;20753288;81;100064;-82
2021/10/05 07:29:30;;;;;;;50.67;35.20;;;;;;;14.39;94.72;100327.10;21115866;81;104230;-81
2021/10/05 07:59:31;;;;;;;52.30;35.63;;;;;;;15.10;93.60;100274.72;21122000;80;100042;-82
2021/10/05 08:29:37;;;;;;;47.30;32.38;;;;;;;15.90;93.02;100232.19;21118893;82;99753;-81
2021/10/05 08:59:38;;;;;;;31.25;22.75;;;;;;;17.49;90.48;100152.62;21205868;81;99556;-81
2021/10/05 09:29:40;;;;;;;33.35;21.48;;;;;;;20.47;83.69;100101.11;21382497;80;99733;-82
2021/10/05 09:59:41;;;;;;;28.45;20.60;;;;;;;23.72;72.46;100058.20;21315789;80;99817;-82
2021/10/05 10:29:43;;;;;;;29.50;18.92;;;;;;;24.62;64.93;100006.28;21119784;81;99557;-82
2021/10/05 10:59:44;;;;;;;20.40;13.68;;;;;;;24.92;61.03;99972.66;21111487;81;99530;-82
2021/10/05 11:29:47;;;;;;;18.73;11.22;;;;;;;25.37;57.70;99931.31;21130381;82;1274607;-82
2021/10/05 11:59:49;;;;;;;19.87;9.65;;;;;;;25.86;55.78;99872.03;21194249;81;100066;-82
2021/10/05 12:30:07;;;;;;;18.10;7.97;;;;;;;25.78;54.71;99823.75;21415533;81;99622;-81
2021/10/05 13:00:09;;;;;;;15.95;7.90;;;;;;;25.85;51.18;99781.67;21492001;80;99751;-82
2021/10/05 13:30:11;;;;;;;12.90;7.13;;;;;;;25.75;51.53;99776.05;21413017;80;99211;-84
2021/10/05 14:00:13;;;;;;;17.23;8.43;;;;;;;25.73;50.90;99747.59;21361757;80;99526;-83
2021/10/05 14:30:17;;;;;;;17.77;7.83;;;;;;;25.52;49.47;99722.91;21135044;82;99486;-84
2021/10/05 15:00:18;;;;;;;15.85;7.25;;;;;;;25.18;49.43;99712.45;21020730;81;99571;-82
2021/10/05 15:30:18;;;;;;;19.57;7.78;;;;;;;24.82;49.60;99710.83;20697856;83;99512;-83
2021/10/05 16:00:23;;;;;;;12.18;6.62;;;;;;;24.39;49.67;99707.47;20774268;81;99575;-83
2021/10/05 16:30:24;;;;;;;24.07;8.63;;;;;;;24.03;50.65;99710.73;21097544;81;99499;-83
2021/10/05 17:00:25;;;;;;;23.80;7.62;;;;;;;23.33;51.94;99728.53;21128968;81;99486;-82
2021/10/05 17:30:27;;;;;;;12.87;7.43;;;;;;;23.33;51.94;99728.53;21165862;81;106763;-83
2021/10/05 18:00:28;;;;;;;12.13;7.80;;;;;;;23.18;52.46;99744.55;21229028;81;99716;-80
2021/10/05 18:30:29;;;;;;;17.17;9.17;;;;;;;22.93;54.44;99768.84;21229505;82;99766;-78
2021/10/05 19:00:30;;;;;;;18.93;11.70;;;;;;;21.85;60.21;99861.66;21259138;80;99323;-80
2021/10/05 19:30:31;;;;;;;21.35;12.65;;;;;;;19.58;74.69;99900.63;21458610;80;99308;-82
2021/10/05 20:00:32;;;;;;;20.65;12.90;;;;;;;19.33;76.66;99915.41;21418607;80;99510;-79
2021/10/05 20:30:35;;;;;;;24.87;16.93;;;;;;;19.20;78.58;99927.77;21262670;81;99433;-81
2021/10/05 21:00:36;;;;;;;23.30;15.75;;;;;;;18.76;81.78;99946.27;21265280;81;99508;-81
2021/10/05 21:30:37;;;;;;;34.00;22.97;;;;;;;18.62;81.83;99944.48;21450054;81;99666;-82
2021/10/05 22:00:38;;;;;;;27.37;19.50;;;;;;;18.07;85.95;99987.39;21359792;80;99530;-82
2021/10/05 22:30:39;;;;;;;32.27;23.17;;;;;;;17.89;87.07;100000.20;21143684;80;99287;-82
2021/10/05 23:00:41;;;;;;;29.40;20.82;;;;;;;17.69;87.79;100037.08;21152677;81;99896;-82
2021/10/05 23:30:42;;;;;;;28.00;21.20;;;;;;;17.36;89.23;100074.39;21127676;81;99794;-83
